sensor_id;sensor_type;location;lat;lon;timestamp;pressure;altitude;pressure_sealevel;temperature;humidity
45541;BME280;31265;49.680;8.608;2023-09-08T00:00:53;100694.28;;;15.71;100.00
45541;BME280;31265;49.680;8.608;2023-09-08T00:03:22;100695.56;;;15.60;100.00
45541;BME280;31265;49.680;8.608;2023-09-08T00:05:51;100685.00;;;15.58;100.00
45541;BME280;31265;49.680;8.608;2023-09-08T00:08:19;100690.28;;;15.64;100.00
45541;BME280;31265;49.680;8.608;2023-09-08T00:10:50;100691.59;;;15.63;100.00
45541;BME280;31265;49.680;8.608;2023-09-08T00:13:18;100697.06;;;15.61;100.00
45541;BME280;31265;49.680;8.608;2023-09-08T00:15:46;100688.34;;;15.57;100.00
45541;BME280;31265;49.680;8.608;2023-09-08T00:18:15;100689.81;;;15.58;100.00
45541;BME280;31265;49.680;8.608;2023-09-08T00:20:43;100683.34;;;15.65;100.00
45541;BME280;31265;49.680;8.608;2023-09-08T00:23:11;100681.59;;;15.60;100.00
45541;BME280;31265;49.680;8.608;2023-09-08T00:25:40;100687.19;;;15.89;100.00
45541;BME280;31265;49.680;8.608;2023-09-08T00:28:09;100682.44;;;16.01;100.00
45541;BME280;31265;49.680;8.608;2023-09-08T00:30:41;100675.41;;;15.90;100.00
45541;BME280;31265;49.680;8.608;2023-09-08T00:33:10;100677.31;;;15.88;100.00
45541;BME280;31265;49.680;8.608;2023-09-08T00:35:44;100672.88;;;15.95;100.00
45541;BME280;31265;49.680;8.608;2023-09-08T00:38:12;100675.38;;;16.00;100.00
45541;BME280;31265;49.680;8.608;2023-09-08T00:40:41;100676.66;;;16.09;100.00
45541;BME280;31265;49.680;8.608;2023-09-08T00:43:10;100674.22;;;15.94;100.00
45541;BME280;31265;49.680;8.608;2023-09-08T00:45:41;100673.47;;;15.93;100.00
45541;BME280;31265;49.680;8.608;2023-09-08T00:48:11;100678.44;;;16.04;100.00
45541;BME280;31265;49.680;8.608;2023-09-08T00:50:39;100677.56;;;16.02;100.00
45541;BME280;31265;49.680;8.608;2023-09-08T00:53:12;100673.03;;;15.97;100.00
45541;BME280;31265;49.680;8.608;2023-09-08T00:55:40;100679.38;;;15.87;100.00
45541;BME280;31265;49.680;8.608;2023-09-08T00:58:11;100675.44;;;15.71;100.00
45541;BME280;31265;49.680;8.608;2023-09-08T01:00:39;100678.50;;;15.56;100.00
45541;BME280;31265;49.680;8.608;2023-09-08T01:03:08;100678.94;;;15.42;100.00
45541;BME280;31265;49.680;8.608;2023-09-08T01:05:38;100677.78;;;15.26;100.00
45541;BME280;31265;49.680;8.608;2023-09-08T01:08:08;100671.44;;;15.16;100.00
45541;BME280;31265;49.680;8.608;2023-09-08T01:10:37;100673.63;;;15.08;100.00
45541;BME280;31265;49.680;8.608;2023-09-08T01:13:06;100675.22;;;15.11;100.00
45541;BME280;31265;49.680;8.608;2023-09-08T01:15:36;100678.19;;;15.13;100.00
45541;BME280;31265;49.680;8.608;2023-09-08T01:18:04;100674.09;;;15.23;100.00
45541;BME280;31265;49.680;8.608;2023-09-08T01:20:46;100677.63;;;15.24;100.00
45541;BME280;31265;49.680;8.608;2023-09-08T01:23:18;100680.84;;;15.30;100.00
45541;BME280;31265;49.680;8.608;2023-09-08T01:25:54;100684.69;;;15.35;100.00
45541;BME280;31265;49.680;8.608;2023-09-08T01:28:24;100674.53;;;15.39;100.00
45541;BME280;31265;49.680;8.608;2023-09-08T01:30:55;100687.78;;;15.39;100.00
45541;BME280;31265;49.680;8.608;2023-09-08T01:33:24;100682.03;;;15.37;100.00
45541;BME280;31265;49.680;8.608;2023-09-08T01:35:53;100682.91;;;15.30;100.00
45541;BME280;31265;49.680;8.608;2023-09-08T01:38:23;100682.91;;;15.20;100.00
45541;BME280;31265;49.680;8.608;2023-09-08T01:40:53;100679.38;;;15.10;100.00
45541;BME280;31265;49.680;8.608;2023-09-08T01:43:22;100676.72;;;15.02;100.00
45541;BME280;31265;49.680;8.608;2023-09-08T01:45:51;100679.78;;;14.96;100.00
45541;BME280;31265;49.680;8.608;2023-09-08T01:48:19;100677.00;;;15.06;100.00
45541;BME280;31265;49.680;8.608;2023-09-08T01:50:47;100673.47;;;15.15;100.00
45541;BME280;31265;49.680;8.608;2023-09-08T01:53:16;100667.16;;;15.15;100.00
45541;BME280;31265;49.680;8.608;2023-09-08T01:55:44;100672.59;;;15.13;100.00
45541;BME280;31265;49.680;8.608;2023-09-08T01:58:14;100669.66;;;15.11;100.00
45541;BME280;31265;49.680;8.608;2023-09-08T02:00:42;100669.78;;;15.03;100.00
45541;BME280;31265;49.680;8.608;2023-09-08T02:03:13;100672.56;;;14.93;100.00
45541;BME280;31265;49.680;8.608;2023-09-08T02:05:44;100670.50;;;14.84;100.00
45541;BME280;31265;49.680;8.608;2023-09-08T02:08:13;100671.22;;;14.75;100.00
45541;BME280;31265;49.680;8.608;2023-09-08T02:10:41;100673.84;;;14.73;100.00
45541;BME280;31265;49.680;8.608;2023-09-08T02:13:10;100677.06;;;14.69;100.00
45541;BME280;31265;49.680;8.608;2023-09-08T02:15:40;100676.31;;;14.69;100.00
45541;BME280;31265;49.680;8.608;2023-09-08T02:18:10;100674.97;;;14.60;100.00
45541;BME280;31265;49.680;8.608;2023-09-08T02:20:39;100679.69;;;14.57;100.00
45541;BME280;31265;49.680;8.608;2023-09-08T02:23:08;100667.44;;;14.53;100.00
45541;BME280;31265;49.680;8.608;2023-09-08T02:25:36;100680.84;;;14.54;100.00
45541;BME280;31265;49.680;8.608;2023-09-08T02:28:05;100685.09;;;14.55;100.00
45541;BME280;31265;49.680;8.608;2023-09-08T02:30:34;100679.34;;;14.53;100.00
45541;BME280;31265;49.680;8.608;2023-09-08T02:33:04;100680.25;;;14.56;100.00
45541;BME280;31265;49.680;8.608;2023-09-08T02:35:36;100701.38;;;14.49;100.00
45541;BME280;31265;49.680;8.608;2023-09-08T02:38:05;100690.91;;;14.40;100.00
45541;BME280;31265;49.680;8.608;2023-09-08T02:40:36;100683.03;;;14.29;100.00
45541;BME280;31265;49.680;8.608;2023-09-08T02:43:05;100684.66;;;14.22;100.00
45541;BME280;31265;49.680;8.608;2023-09-08T02:45:33;100694.91;;;14.19;100.00
45541;BME280;31265;49.680;8.608;2023-09-08T02:48:05;100690.34;;;14.14;100.00
45541;BME280;31265;49.680;8.608;2023-09-08T02:50:33;100688.69;;;14.11;100.00
45541;BME280;31265;49.680;8.608;2023-09-08T02:53:02;100682.81;;;14.07;100.00
45541;BME280;31265;49.680;8.608;2023-09-08T02:55:30;100690.56;;;14.09;100.00
45541;BME280;31265;49.680;8.608;2023-09-08T02:57:58;100692.56;;;13.98;100.00
45541;BME280;31265;49.680;8.608;2023-09-08T03:00:27;100686.84;;;13.96;100.00
45541;BME280;31265;49.680;8.608;2023-09-08T03:02:56;100694.00;;;13.90;100.00
45541;BME280;31265;49.680;8.608;2023-09-08T03:05:31;100692.03;;;13.83;100.00
45541;BME280;31265;49.680;8.608;2023-09-08T03:08:01;100684.41;;;13.83;100.00
45541;BME280;31265;49.680;8.608;2023-09-08T03:10:35;100700.81;;;13.79;100.00
45541;BME280;31265;49.680;8.608;2023-09-08T03:13:03;100693.03;;;13.77;100.00
45541;BME280;31265;49.680;8.608;2023-09-08T03:15:34;100694.03;;;13.72;100.00
45541;BME280;31265;49.680;8.608;2023-09-08T03:18:04;100694.44;;;13.69;100.00
45541;BME280;31265;49.680;8.608;2023-09-08T03:20:35;100695.00;;;13.67;100.00
45541;BME280;31265;49.680;8.608;2023-09-08T03:23:03;100684.59;;;13.68;100.00
45541;BME280;31265;49.680;8.608;2023-09-08T03:25:32;100696.66;;;13.70;100.00
45541;BME280;31265;49.680;8.608;2023-09-08T03:28:00;100696.97;;;13.74;100.00
45541;BME280;31265;49.680;8.608;2023-09-08T03:30:28;100696.81;;;13.72;100.00
45541;BME280;31265;49.680;8.608;2023-09-08T03:32:57;100700.25;;;13.63;100.00
45541;BME280;31265;49.680;8.608;2023-09-08T03:35:25;100688.78;;;13.59;100.00
45541;BME280;31265;49.680;8.608;2023-09-08T03:37:58;100694.06;;;13.55;100.00
45541;BME280;31265;49.680;8.608;2023-09-08T03:40:26;100698.31;;;13.56;100.00
45541;BME280;31265;49.680;8.608;2023-09-08T03:42:55;100697.16;;;13.59;100.00
45541;BME280;31265;49.680;8.608;2023-09-08T03:45:24;100695.19;;;13.52;100.00
45541;BME280;31265;49.680;8.608;2023-09-08T03:47:53;100705.19;;;13.55;100.00
45541;BME280;31265;49.680;8.608;2023-09-08T03:50:21;100701.34;;;13.50;100.00
45541;BME280;31265;49.680;8.608;2023-09-08T03:52:51;100706.03;;;13.48;100.00
45541;BME280;31265;49.680;8.608;2023-09-08T03:55:21;100705.13;;;13.45;100.00
45541;BME280;31265;49.680;8.608;2023-09-08T03:57:49;100704.03;;;13.41;100.00
45541;BME280;31265;49.680;8.608;2023-09-08T04:00:18;100708.47;;;13.44;100.00
45541;BME280;31265;49.680;8.608;2023-09-08T04:02:49;100706.41;;;13.44;100.00
45541;BME280;31265;49.680;8.608;2023-09-08T04:05:18;100706.75;;;13.48;100.00
45541;BME280;31265;49.680;8.608;2023-09-08T04:07:47;100710.84;;;13.47;100.00
45541;BME280;31265;49.680;8.608;2023-09-08T04:10:17;100704.53;;;13.47;100.00
45541;BME280;31265;49.680;8.608;2023-09-08T04:12:46;100717.25;;;13.40;100.00
45541;BME280;31265;49.680;8.608;2023-09-08T04:15:15;100716.00;;;13.33;100.00
45541;BME280;31265;49.680;8.608;2023-09-08T04:17:43;100718.22;;;13.35;100.00
45541;BME280;31265;49.680;8.608;2023-09-08T04:20:12;100710.69;;;13.28;100.00
45541;BME280;31265;49.680;8.608;2023-09-08T04:22:42;100712.03;;;13.19;100.00
45541;BME280;31265;49.680;8.608;2023-09-08T04:25:11;100716.69;;;13.17;100.00
45541;BME280;31265;49.680;8.608;2023-09-08T04:27:39;100711.13;;;13.17;100.00
45541;BME280;31265;49.680;8.608;2023-09-08T04:30:11;100721.38;;;13.14;100.00
45541;BME280;31265;49.680;8.608;2023-09-08T04:32:40;100721.78;;;13.10;100.00
45541;BME280;31265;49.680;8.608;2023-09-08T04:35:08;100724.94;;;13.07;100.00
45541;BME280;31265;49.680;8.608;2023-09-08T04:37:37;100720.53;;;13.04;100.00
45541;BME280;31265;49.680;8.608;2023-09-08T04:40:07;100724.28;;;12.99;100.00
45541;BME280;31265;49.680;8.608;2023-09-08T04:42:36;100734.69;;;12.98;100.00
45541;BME280;31265;49.680;8.608;2023-09-08T04:45:08;100737.63;;;13.00;100.00
45541;BME280;31265;49.680;8.608;2023-09-08T04:47:38;100735.25;;;12.97;100.00
45541;BME280;31265;49.680;8.608;2023-09-08T04:50:06;100739.00;;;12.91;100.00
45541;BME280;31265;49.680;8.608;2023-09-08T04:52:37;100740.47;;;12.93;100.00
45541;BME280;31265;49.680;8.608;2023-09-08T04:55:07;100747.38;;;12.91;100.00
45541;BME280;31265;49.680;8.608;2023-09-08T04:57:36;100745.72;;;12.88;100.00
45541;BME280;31265;49.680;8.608;2023-09-08T05:00:06;100742.94;;;12.88;100.00
45541;BME280;31265;49.680;8.608;2023-09-08T05:02:37;100749.47;;;12.83;100.00
45541;BME280;31265;49.680;8.608;2023-09-08T05:05:07;100749.47;;;12.83;100.00
45541;BME280;31265;49.680;8.608;2023-09-08T05:07:36;100747.59;;;12.86;100.00
45541;BME280;31265;49.680;8.608;2023-09-08T05:10:05;100759.78;;;12.90;100.00
45541;BME280;31265;49.680;8.608;2023-09-08T05:12:35;100748.63;;;12.98;100.00
45541;BME280;31265;49.680;8.608;2023-09-08T05:15:05;100756.50;;;13.09;100.00
45541;BME280;31265;49.680;8.608;2023-09-08T05:17:41;100750.69;;;13.15;100.00
45541;BME280;31265;49.680;8.608;2023-09-08T05:20:10;100750.69;;;13.15;100.00
45541;BME280;31265;49.680;8.608;2023-09-08T05:22:39;100752.66;;;13.22;100.00
45541;BME280;31265;49.680;8.608;2023-09-08T05:25:08;100752.41;;;13.36;100.00
45541;BME280;31265;49.680;8.608;2023-09-08T05:27:38;100752.56;;;13.38;100.00
45541;BME280;31265;49.680;8.608;2023-09-08T05:30:08;100747.66;;;13.46;100.00
45541;BME280;31265;49.680;8.608;2023-09-08T05:32:38;100753.72;;;13.52;100.00
45541;BME280;31265;49.680;8.608;2023-09-08T05:35:08;100760.97;;;13.55;100.00
45541;BME280;31265;49.680;8.608;2023-09-08T05:37:36;100761.84;;;13.58;100.00
45541;BME280;31265;49.680;8.608;2023-09-08T05:40:06;100761.00;;;13.65;100.00
45541;BME280;31265;49.680;8.608;2023-09-08T05:42:35;100765.94;;;13.74;100.00
45541;BME280;31265;49.680;8.608;2023-09-08T05:45:04;100758.16;;;13.90;100.00
45541;BME280;31265;49.680;8.608;2023-09-08T05:47:32;100769.53;;;14.02;100.00
45541;BME280;31265;49.680;8.608;2023-09-08T05:50:03;100762.72;;;14.12;100.00
45541;BME280;31265;49.680;8.608;2023-09-08T05:52:34;100767.94;;;14.26;100.00
45541;BME280;31265;49.680;8.608;2023-09-08T05:55:03;100769.22;;;14.42;100.00
45541;BME280;31265;49.680;8.608;2023-09-08T05:57:31;100762.13;;;14.58;100.00
45541;BME280;31265;49.680;8.608;2023-09-08T06:00:02;100758.84;;;14.79;100.00
45541;BME280;31265;49.680;8.608;2023-09-08T06:02:39;100765.09;;;15.07;100.00
45541;BME280;31265;49.680;8.608;2023-09-08T06:05:10;100766.63;;;15.27;100.00
45541;BME280;31265;49.680;8.608;2023-09-08T06:07:41;100766.22;;;15.51;100.00
45541;BME280;31265;49.680;8.608;2023-09-08T06:10:23;100759.78;;;15.77;100.00
45541;BME280;31265;49.680;8.608;2023-09-08T06:12:52;100761.38;;;16.00;100.00
45541;BME280;31265;49.680;8.608;2023-09-08T06:15:20;100751.63;;;16.30;100.00
45541;BME280;31265;49.680;8.608;2023-09-08T06:17:49;100757.63;;;16.46;100.00
45541;BME280;31265;49.680;8.608;2023-09-08T06:20:17;100754.00;;;16.74;100.00
45541;BME280;31265;49.680;8.608;2023-09-08T06:22:47;100758.06;;;16.93;100.00
45541;BME280;31265;49.680;8.608;2023-09-08T06:25:15;100759.84;;;17.19;100.00
45541;BME280;31265;49.680;8.608;2023-09-08T06:27:44;100762.66;;;17.41;100.00
45541;BME280;31265;49.680;8.608;2023-09-08T06:30:13;100757.66;;;17.73;100.00
45541;BME280;31265;49.680;8.608;2023-09-08T06:32:43;100759.25;;;17.97;100.00
45541;BME280;31265;49.680;8.608;2023-09-08T06:35:12;100763.41;;;18.41;100.00
45541;BME280;31265;49.680;8.608;2023-09-08T06:37:41;100764.94;;;18.78;100.00
45541;BME280;31265;49.680;8.608;2023-09-08T06:40:12;100759.53;;;19.17;100.00
45541;BME280;31265;49.680;8.608;2023-09-08T06:42:40;100759.72;;;19.45;100.00
45541;BME280;31265;49.680;8.608;2023-09-08T06:45:16;100760.69;;;19.87;100.00
45541;BME280;31265;49.680;8.608;2023-09-08T06:47:46;100756.16;;;19.93;100.00
45541;BME280;31265;49.680;8.608;2023-09-08T06:50:16;100756.06;;;20.05;100.00
45541;BME280;31265;49.680;8.608;2023-09-08T06:52:45;100757.03;;;20.35;100.00
45541;BME280;31265;49.680;8.608;2023-09-08T06:55:15;100762.00;;;20.37;100.00
45541;BME280;31265;49.680;8.608;2023-09-08T06:57:44;100764.94;;;20.39;100.00
45541;BME280;31265;49.680;8.608;2023-09-08T07:00:14;100756.72;;;20.43;100.00
45541;BME280;31265;49.680;8.608;2023-09-08T07:02:44;100760.63;;;20.64;100.00
45541;BME280;31265;49.680;8.608;2023-09-08T07:05:13;100753.84;;;20.96;100.00
45541;BME280;31265;49.680;8.608;2023-09-08T07:07:42;100756.78;;;21.12;100.00
45541;BME280;31265;49.680;8.608;2023-09-08T07:10:11;100754.03;;;21.28;100.00
45541;BME280;31265;49.680;8.608;2023-09-08T07:12:42;100755.63;;;21.45;100.00
45541;BME280;31265;49.680;8.608;2023-09-08T07:15:10;100743.88;;;21.51;100.00
45541;BME280;31265;49.680;8.608;2023-09-08T07:17:39;100758.50;;;21.90;100.00
45541;BME280;31265;49.680;8.608;2023-09-08T07:20:08;100758.50;;;22.20;100.00
45541;BME280;31265;49.680;8.608;2023-09-08T07:22:37;100761.72;;;22.28;100.00
45541;BME280;31265;49.680;8.608;2023-09-08T07:25:07;100763.81;;;22.44;100.00
45541;BME280;31265;49.680;8.608;2023-09-08T07:27:36;100753.78;;;22.57;100.00
45541;BME280;31265;49.680;8.608;2023-09-08T07:30:08;100759.59;;;22.45;100.00
45541;BME280;31265;49.680;8.608;2023-09-08T07:32:37;100759.44;;;22.57;100.00
45541;BME280;31265;49.680;8.608;2023-09-08T07:35:06;100763.44;;;22.67;100.00
45541;BME280;31265;49.680;8.608;2023-09-08T07:37:42;100759.25;;;22.52;100.00
45541;BME280;31265;49.680;8.608;2023-09-08T07:40:12;100769.09;;;22.83;100.00
45541;BME280;31265;49.680;8.608;2023-09-08T07:42:41;100764.16;;;22.84;100.00
45541;BME280;31265;49.680;8.608;2023-09-08T07:45:11;100777.03;;;22.87;100.00
45541;BME280;31265;49.680;8.608;2023-09-08T07:47:40;100774.63;;;22.97;100.00
45541;BME280;31265;49.680;8.608;2023-09-08T07:50:21;100779.13;;;23.36;100.00
45541;BME280;31265;49.680;8.608;2023-09-08T07:52:51;100776.22;;;23.34;100.00
45541;BME280;31265;49.680;8.608;2023-09-08T07:55:20;100776.59;;;23.60;100.00
45541;BME280;31265;49.680;8.608;2023-09-08T07:57:52;100775.19;;;23.43;100.00
45541;BME280;31265;49.680;8.608;2023-09-08T08:00:22;100769.94;;;23.53;100.00
45541;BME280;31265;49.680;8.608;2023-09-08T08:02:53;100780.84;;;23.77;100.00
45541;BME280;31265;49.680;8.608;2023-09-08T08:05:23;100784.84;;;24.25;100.00
45541;BME280;31265;49.680;8.608;2023-09-08T08:07:51;100787.00;;;24.83;100.00
45541;BME280;31265;49.680;8.608;2023-09-08T08:10:20;100778.25;;;24.97;100.00
45541;BME280;31265;49.680;8.608;2023-09-08T08:12:49;100779.13;;;24.61;100.00
45541;BME280;31265;49.680;8.608;2023-09-08T08:15:19;100782.31;;;24.52;100.00
45541;BME280;31265;49.680;8.608;2023-09-08T08:17:50;100784.81;;;24.43;100.00
45541;BME280;31265;49.680;8.608;2023-09-08T08:20:19;100784.22;;;24.65;100.00
45541;BME280;31265;49.680;8.608;2023-09-08T08:22:47;100785.53;;;24.82;100.00
45541;BME280;31265;49.680;8.608;2023-09-08T08:25:15;100786.63;;;25.33;100.00
45541;BME280;31265;49.680;8.608;2023-09-08T08:27:44;100791.84;;;25.62;100.00
45541;BME280;31265;49.680;8.608;2023-09-08T08:30:12;100790.66;;;25.69;100.00
45541;BME280;31265;49.680;8.608;2023-09-08T08:32:41;100790.78;;;25.73;100.00
45541;BME280;31265;49.680;8.608;2023-09-08T08:35:11;100786.16;;;25.84;100.00
45541;BME280;31265;49.680;8.608;2023-09-08T08:37:40;100783.41;;;25.64;100.00
45541;BME280;31265;49.680;8.608;2023-09-08T08:40:09;100779.03;;;25.61;100.00
45541;BME280;31265;49.680;8.608;2023-09-08T08:42:39;100787.94;;;25.73;100.00
45541;BME280;31265;49.680;8.608;2023-09-08T08:45:08;100782.81;;;26.38;98.72
45541;BME280;31265;49.680;8.608;2023-09-08T08:47:39;100787.81;;;26.62;95.26
45541;BME280;31265;49.680;8.608;2023-09-08T08:50:08;100780.69;;;26.87;93.31
45541;BME280;31265;49.680;8.608;2023-09-08T08:52:39;100777.09;;;26.36;96.39
45541;BME280;31265;49.680;8.608;2023-09-08T08:55:08;100777.69;;;26.80;92.07
45541;BME280;31265;49.680;8.608;2023-09-08T08:57:38;100770.31;;;26.71;93.42
45541;BME280;31265;49.680;8.608;2023-09-08T09:00:07;100774.66;;;26.74;93.49
45541;BME280;31265;49.680;8.608;2023-09-08T09:02:39;100773.41;;;26.55;100.00
45541;BME280;31265;49.680;8.608;2023-09-08T09:05:09;100772.94;;;27.17;93.12
45541;BME280;31265;49.680;8.608;2023-09-08T09:07:41;100773.91;;;27.26;92.76
45541;BME280;31265;49.680;8.608;2023-09-08T09:10:10;100780.03;;;27.42;90.76
45541;BME280;31265;49.680;8.608;2023-09-08T09:12:39;100775.25;;;27.23;92.10
45541;BME280;31265;49.680;8.608;2023-09-08T09:15:09;100775.78;;;27.43;92.95
45541;BME280;31265;49.680;8.608;2023-09-08T09:17:38;100769.22;;;27.97;87.36
45541;BME280;31265;49.680;8.608;2023-09-08T09:20:13;100779.00;;;28.20;84.50
45541;BME280;31265;49.680;8.608;2023-09-08T09:22:46;100773.88;;;28.47;79.41
45541;BME280;31265;49.680;8.608;2023-09-08T09:25:22;100782.22;;;28.37;84.25
45541;BME280;31265;49.680;8.608;2023-09-08T09:27:52;100776.13;;;28.52;81.55
45541;BME280;31265;49.680;8.608;2023-09-08T09:30:22;100779.44;;;28.41;82.70
45541;BME280;31265;49.680;8.608;2023-09-08T09:32:59;100781.94;;;28.57;78.20
45541;BME280;31265;49.680;8.608;2023-09-08T09:35:44;100778.13;;;28.82;79.38
45541;BME280;31265;49.680;8.608;2023-09-08T09:38:14;100782.56;;;29.28;74.00
45541;BME280;31265;49.680;8.608;2023-09-08T09:40:43;100775.06;;;29.06;73.70
45541;BME280;31265;49.680;8.608;2023-09-08T09:43:14;100768.47;;;29.00;73.11
45541;BME280;31265;49.680;8.608;2023-09-08T09:45:43;100775.94;;;29.17;73.07
45541;BME280;31265;49.680;8.608;2023-09-08T09:48:12;100764.13;;;29.37;70.75
45541;BME280;31265;49.680;8.608;2023-09-08T09:50:41;100770.00;;;29.92;69.24
45541;BME280;31265;49.680;8.608;2023-09-08T09:53:11;100768.75;;;29.56;74.50
45541;BME280;31265;49.680;8.608;2023-09-08T09:55:43;100758.81;;;29.62;72.15
45541;BME280;31265;49.680;8.608;2023-09-08T09:58:12;100767.16;;;29.92;69.00
45541;BME280;31265;49.680;8.608;2023-09-08T10:00:42;100760.28;;;29.65;69.41
45541;BME280;31265;49.680;8.608;2023-09-08T10:03:16;100759.50;;;30.07;66.58
45541;BME280;31265;49.680;8.608;2023-09-08T10:05:45;100753.97;;;29.26;66.84
45541;BME280;31265;49.680;8.608;2023-09-08T10:08:16;100761.81;;;29.68;66.55
45541;BME280;31265;49.680;8.608;2023-09-08T10:10:47;100762.50;;;30.17;65.54
45541;BME280;31265;49.680;8.608;2023-09-08T10:13:22;100747.72;;;30.35;64.64
45541;BME280;31265;49.680;8.608;2023-09-08T10:15:54;100748.38;;;30.29;65.19
45541;BME280;31265;49.680;8.608;2023-09-08T10:18:25;100747.28;;;30.57;61.77
45541;BME280;31265;49.680;8.608;2023-09-08T10:20:59;100749.53;;;30.69;67.16
45541;BME280;31265;49.680;8.608;2023-09-08T10:23:34;100749.94;;;31.05;62.85
45541;BME280;31265;49.680;8.608;2023-09-08T10:26:07;100744.34;;;30.51;60.54
45541;BME280;31265;49.680;8.608;2023-09-08T10:28:37;100744.75;;;30.25;60.27
45541;BME280;31265;49.680;8.608;2023-09-08T10:31:07;100737.38;;;30.70;59.08
45541;BME280;31265;49.680;8.608;2023-09-08T10:33:39;100728.28;;;30.25;61.07
45541;BME280;31265;49.680;8.608;2023-09-08T10:36:08;100728.22;;;30.21;61.53
45541;BME280;31265;49.680;8.608;2023-09-08T10:38:37;100734.59;;;30.74;60.63
45541;BME280;31265;49.680;8.608;2023-09-08T10:41:28;100738.22;;;30.81;59.32
45541;BME280;31265;49.680;8.608;2023-09-08T10:44:02;100735.69;;;31.14;58.73
45541;BME280;31265;49.680;8.608;2023-09-08T10:46:44;100728.09;;;30.70;58.52
45541;BME280;31265;49.680;8.608;2023-09-08T10:49:13;100734.09;;;30.98;58.37
45541;BME280;31265;49.680;8.608;2023-09-08T10:51:41;100721.38;;;31.16;59.43
45541;BME280;31265;49.680;8.608;2023-09-08T10:54:10;100725.75;;;31.25;57.71
45541;BME280;31265;49.680;8.608;2023-09-08T10:56:54;100730.28;;;31.53;56.05
45541;BME280;31265;49.680;8.608;2023-09-08T10:59:28;100724.03;;;31.81;56.56
45541;BME280;31265;49.680;8.608;2023-09-08T11:01:56;100719.72;;;31.78;54.18
45541;BME280;31265;49.680;8.608;2023-09-08T11:04:25;100722.75;;;32.08;59.85
45541;BME280;31265;49.680;8.608;2023-09-08T11:06:56;100717.19;;;32.55;53.20
45541;BME280;31265;49.680;8.608;2023-09-08T11:09:25;100720.59;;;32.11;54.69
45541;BME280;31265;49.680;8.608;2023-09-08T11:11:55;100712.72;;;32.13;53.58
45541;BME280;31265;49.680;8.608;2023-09-08T11:14:25;100722.28;;;32.80;52.93
45541;BME280;31265;49.680;8.608;2023-09-08T11:16:54;100711.50;;;32.82;51.32
45541;BME280;31265;49.680;8.608;2023-09-08T11:19:22;100710.81;;;33.39;49.90
45541;BME280;31265;49.680;8.608;2023-09-08T11:21:51;100715.88;;;33.26;52.28
45541;BME280;31265;49.680;8.608;2023-09-08T11:24:20;100701.09;;;31.87;52.68
45541;BME280;31265;49.680;8.608;2023-09-08T11:26:48;100696.69;;;31.63;61.40
45541;BME280;31265;49.680;8.608;2023-09-08T11:29:19;100704.34;;;32.89;53.81
45541;BME280;31265;49.680;8.608;2023-09-08T11:31:51;100704.34;;;33.16;51.68
45541;BME280;31265;49.680;8.608;2023-09-08T11:34:20;100700.03;;;33.27;54.11
45541;BME280;31265;49.680;8.608;2023-09-08T11:36:49;100695.56;;;34.06;49.28
45541;BME280;31265;49.680;8.608;2023-09-08T11:39:18;100700.28;;;34.75;47.04
45541;BME280;31265;49.680;8.608;2023-09-08T11:41:47;100694.13;;;34.09;46.96
45541;BME280;31265;49.680;8.608;2023-09-08T11:44:17;100692.69;;;34.10;47.27
45541;BME280;31265;49.680;8.608;2023-09-08T11:46:47;100679.72;;;34.07;48.50
45541;BME280;31265;49.680;8.608;2023-09-08T11:49:19;100679.84;;;33.80;48.38
45541;BME280;31265;49.680;8.608;2023-09-08T11:51:47;100677.75;;;33.44;49.69
45541;BME280;31265;49.680;8.608;2023-09-08T11:54:16;100678.34;;;33.94;51.94
45541;BME280;31265;49.680;8.608;2023-09-08T11:56:45;100678.31;;;34.10;48.21
45541;BME280;31265;49.680;8.608;2023-09-08T11:59:14;100682.75;;;33.52;48.82
45541;BME280;31265;49.680;8.608;2023-09-08T12:01:43;100668.44;;;33.25;48.95
45541;BME280;31265;49.680;8.608;2023-09-08T12:04:18;100673.41;;;33.61;48.42
45541;BME280;31265;49.680;8.608;2023-09-08T12:06:48;100665.56;;;33.03;51.29
45541;BME280;31265;49.680;8.608;2023-09-08T12:09:17;100661.03;;;34.10;48.82
45541;BME280;31265;49.680;8.608;2023-09-08T12:11:45;100666.22;;;33.65;49.05
45541;BME280;31265;49.680;8.608;2023-09-08T12:14:15;100662.66;;;32.88;51.46
45541;BME280;31265;49.680;8.608;2023-09-08T12:16:44;100666.97;;;32.77;54.21
45541;BME280;31265;49.680;8.608;2023-09-08T12:19:29;100657.31;;;31.76;57.98
45541;BME280;31265;49.680;8.608;2023-09-08T12:22:02;100658.09;;;31.91;56.80
45541;BME280;31265;49.680;8.608;2023-09-08T12:24:48;100654.03;;;32.64;54.78
45541;BME280;31265;49.680;8.608;2023-09-08T12:27:17;100654.03;;;32.70;54.52
45541;BME280;31265;49.680;8.608;2023-09-08T12:29:56;100646.72;;;32.11;60.70
45541;BME280;31265;49.680;8.608;2023-09-08T12:32:26;100649.63;;;32.32;56.22
45541;BME280;31265;49.680;8.608;2023-09-08T12:34:59;100646.88;;;32.73;54.06
45541;BME280;31265;49.680;8.608;2023-09-08T12:37:28;100641.84;;;32.57;53.38
45541;BME280;31265;49.680;8.608;2023-09-08T12:39:58;100645.41;;;32.76;54.74
45541;BME280;31265;49.680;8.608;2023-09-08T12:42:28;100633.94;;;32.60;59.67
45541;BME280;31265;49.680;8.608;2023-09-08T12:45:03;100642.56;;;32.82;58.33
45541;BME280;31265;49.680;8.608;2023-09-08T12:47:31;100644.00;;;33.20;52.03
45541;BME280;31265;49.680;8.608;2023-09-08T12:50:01;100638.25;;;32.71;55.01
45541;BME280;31265;49.680;8.608;2023-09-08T12:52:31;100635.38;;;32.99;55.12
45541;BME280;31265;49.680;8.608;2023-09-08T12:54:59;100635.19;;;33.92;58.66
45541;BME280;31265;49.680;8.608;2023-09-08T12:57:28;100625.09;;;33.97;52.00